sensor_id;sensor_type;location;lat;lon;timestamp;P1;durP1;ratioP1;P2;durP2;ratioP2
34471;SDS011;20710;49.976;19.836;2023-04-01T00:00:52;5.70;;;1.10;;
34471;SDS011;20710;49.976;19.836;2023-04-01T00:06:53;4.90;;;1.30;;
34471;SDS011;20710;49.976;19.836;2023-04-01T00:12:54;4.20;;;1.50;;
34471;SDS011;20710;49.976;19.836;2023-04-01T00:18:55;3.80;;;1.20;;
34471;SDS011;20710;49.976;19.836;2023-04-01T00:24:56;3.00;;;1.10;;
34471;SDS011;20710;49.976;19.836;2023-04-01T00:30:57;3.20;;;1.10;;
34471;SDS011;20710;49.976;19.836;2023-04-01T00:36:59;5.90;;;1.20;;
34471;SDS011;20710;49.976;19.836;2023-04-01T00:43:01;3.90;;;1.50;;
34471;SDS011;20710;49.976;19.836;2023-04-01T00:49:03;8.40;;;1.70;;
34471;SDS011;20710;49.976;19.836;2023-04-01T00:55:06;3.40;;;1.10;;
34471;SDS011;20710;49.976;19.836;2023-04-01T01:01:08;5.60;;;1.20;;
34471;SDS011;20710;49.976;19.836;2023-04-01T01:13:39;5.40;;;1.60;;
34471;SDS011;20710;49.976;19.836;2023-04-01T01:38:49;11.70;;;2.00;;
34471;SDS011;20710;49.976;19.836;2023-04-01T01:44:52;5.80;;;1.30;;
34471;SDS011;20710;49.976;19.836;2023-04-01T01:50:54;4.30;;;1.50;;
34471;SDS011;20710;49.976;19.836;2023-04-01T01:56:59;4.90;;;1.50;;
34471;SDS011;20710;49.976;19.836;2023-04-01T02:03:19;5.90;;;2.00;;
34471;SDS011;20710;49.976;19.836;2023-04-01T02:09:30;5.40;;;1.80;;
34471;SDS011;20710;49.976;19.836;2023-04-01T02:15:31;8.60;;;2.10;;
34471;SDS011;20710;49.976;19.836;2023-04-01T02:21:34;19.00;;;3.90;;
34471;SDS011;20710;49.976;19.836;2023-04-01T02:27:36;11.10;;;2.70;;
34471;SDS011;20710;49.976;19.836;2023-04-01T02:34:38;8.40;;;2.60;;
34471;SDS011;20710;49.976;19.836;2023-04-01T02:40:59;8.10;;;2.90;;
34471;SDS011;20710;49.976;19.836;2023-04-01T02:47:01;7.30;;;3.00;;
34471;SDS011;20710;49.976;19.836;2023-04-01T02:53:02;5.80;;;2.10;;
34471;SDS011;20710;49.976;19.836;2023-04-01T02:59:07;10.50;;;2.40;;
34471;SDS011;20710;49.976;19.836;2023-04-01T03:05:08;9.50;;;2.40;;
34471;SDS011;20710;49.976;19.836;2023-04-01T03:11:09;9.00;;;2.90;;
34471;SDS011;20710;49.976;19.836;2023-04-01T03:17:11;7.30;;;2.30;;
34471;SDS011;20710;49.976;19.836;2023-04-01T03:23:12;7.20;;;1.50;;
34471;SDS011;20710;49.976;19.836;2023-04-01T03:29:13;5.10;;;1.90;;
34471;SDS011;20710;49.976;19.836;2023-04-01T03:35:16;6.80;;;1.90;;
34471;SDS011;20710;49.976;19.836;2023-04-01T03:41:20;5.30;;;1.80;;
34471;SDS011;20710;49.976;19.836;2023-04-01T03:47:21;6.40;;;1.60;;
34471;SDS011;20710;49.976;19.836;2023-04-01T03:53:22;4.70;;;1.50;;
34471;SDS011;20710;49.976;19.836;2023-04-01T03:59:23;8.60;;;1.90;;
34471;SDS011;20710;49.976;19.836;2023-04-01T04:05:25;5.60;;;2.00;;
34471;SDS011;20710;49.976;19.836;2023-04-01T04:11:30;10.60;;;2.50;;
34471;SDS011;20710;49.976;19.836;2023-04-01T04:17:32;10.10;;;2.80;;
34471;SDS011;20710;49.976;19.836;2023-04-01T04:23:33;8.30;;;2.80;;
34471;SDS011;20710;49.976;19.836;2023-04-01T04:29:34;8.70;;;2.40;;
34471;SDS011;20710;49.976;19.836;2023-04-01T04:35:35;13.10;;;3.10;;
34471;SDS011;20710;49.976;19.836;2023-04-01T04:42:00;13.30;;;2.70;;
34471;SDS011;20710;49.976;19.836;2023-04-01T04:48:01;10.80;;;2.60;;
34471;SDS011;20710;49.976;19.836;2023-04-01T04:54:11;11.50;;;3.20;;
34471;SDS011;20710;49.976;19.836;2023-04-01T05:00:39;7.20;;;2.80;;
34471;SDS011;20710;49.976;19.836;2023-04-01T05:07:08;6.40;;;2.90;;
34471;SDS011;20710;49.976;19.836;2023-04-01T05:13:10;5.10;;;1.80;;
34471;SDS011;20710;49.976;19.836;2023-04-01T05:19:21;8.00;;;1.60;;
34471;SDS011;20710;49.976;19.836;2023-04-01T05:25:22;6.00;;;1.70;;
34471;SDS011;20710;49.976;19.836;2023-04-01T05:31:23;8.60;;;3.00;;
34471;SDS011;20710;49.976;19.836;2023-04-01T05:37:25;4.10;;;1.70;;
34471;SDS011;20710;49.976;19.836;2023-04-01T05:43:36;2.20;;;1.00;;
34471;SDS011;20710;49.976;19.836;2023-04-01T05:49:47;5.30;;;1.20;;
34471;SDS011;20710;49.976;19.836;2023-04-01T05:55:49;5.40;;;1.40;;
34471;SDS011;20710;49.976;19.836;2023-04-01T06:01:50;3.10;;;1.20;;
34471;SDS011;20710;49.976;19.836;2023-04-01T06:08:02;7.00;;;1.60;;
34471;SDS011;20710;49.976;19.836;2023-04-01T06:15:12;7.60;;;2.10;;
34471;SDS011;20710;49.976;19.836;2023-04-01T06:21:45;2.50;;;1.10;;
34471;SDS011;20710;49.976;19.836;2023-04-01T06:41:22;6.20;;;1.60;;
34471;SDS011;20710;49.976;19.836;2023-04-01T06:48:34;4.10;;;1.60;;
34471;SDS011;20710;49.976;19.836;2023-04-01T06:55:44;5.50;;;1.70;;
34471;SDS011;20710;49.976;19.836;2023-04-01T07:02:45;6.90;;;2.10;;
34471;SDS011;20710;49.976;19.836;2023-04-01T07:09:56;8.20;;;2.80;;
34471;SDS011;20710;49.976;19.836;2023-04-01T07:16:15;8.80;;;2.20;;
34471;SDS011;20710;49.976;19.836;2023-04-01T07:22:46;5.30;;;1.50;;
34471;SDS011;20710;49.976;19.836;2023-04-01T07:29:10;3.90;;;1.30;;
34471;SDS011;20710;49.976;19.836;2023-04-01T07:35:21;3.60;;;1.60;;
34471;SDS011;20710;49.976;19.836;2023-04-01T07:48:33;4.20;;;1.80;;
34471;SDS011;20710;49.976;19.836;2023-04-01T07:55:14;6.00;;;1.80;;
34471;SDS011;20710;49.976;19.836;2023-04-01T08:15:19;2.90;;;1.20;;
34471;SDS011;20710;49.976;19.836;2023-04-01T08:21:52;4.00;;;1.30;;
34471;SDS011;20710;49.976;19.836;2023-04-01T08:28:03;3.90;;;1.20;;
34471;SDS011;20710;49.976;19.836;2023-04-01T08:34:12;3.20;;;1.50;;
34471;SDS011;20710;49.976;19.836;2023-04-01T08:40:35;5.30;;;1.30;;
34471;SDS011;20710;49.976;19.836;2023-04-01T08:47:45;5.00;;;1.40;;
34471;SDS011;20710;49.976;19.836;2023-04-01T08:53:52;5.50;;;1.50;;
34471;SDS011;20710;49.976;19.836;2023-04-01T09:07:00;2.20;;;1.10;;
34471;SDS011;20710;49.976;19.836;2023-04-01T09:32:39;3.10;;;1.40;;
34471;SDS011;20710;49.976;19.836;2023-04-01T09:38:57;2.80;;;1.40;;
34471;SDS011;20710;49.976;19.836;2023-04-01T09:45:01;3.40;;;1.30;;
34471;SDS011;20710;49.976;19.836;2023-04-01T10:11:52;2.50;;;1.20;;
34471;SDS011;20710;49.976;19.836;2023-04-01T10:43:39;4.70;;;1.90;;
34471;SDS011;20710;49.976;19.836;2023-04-01T11:29:47;2.70;;;1.40;;
34471;SDS011;20710;49.976;19.836;2023-04-01T11:49:05;3.10;;;1.70;;
34471;SDS011;20710;49.976;19.836;2023-04-01T12:08:36;4.30;;;1.60;;
34471;SDS011;20710;49.976;19.836;2023-04-01T13:32:18;4.10;;;1.50;;
34471;SDS011;20710;49.976;19.836;2023-04-01T13:39:04;4.30;;;1.90;;
34471;SDS011;20710;49.976;19.836;2023-04-01T13:45:13;5.80;;;2.40;;
34471;SDS011;20710;49.976;19.836;2023-04-01T14:10:54;3.40;;;2.00;;
34471;SDS011;20710;49.976;19.836;2023-04-01T14:37:53;8.10;;;3.80;;
34471;SDS011;20710;49.976;19.836;2023-04-01T14:50:21;12.00;;;6.30;;
34471;SDS011;20710;49.976;19.836;2023-04-01T15:02:58;13.40;;;7.80;;
34471;SDS011;20710;49.976;19.836;2023-04-01T15:09:29;9.80;;;5.00;;
34471;SDS011;20710;49.976;19.836;2023-04-01T15:48:38;10.50;;;5.40;;
34471;SDS011;20710;49.976;19.836;2023-04-01T16:14:11;9.40;;;5.10;;
34471;SDS011;20710;49.976;19.836;2023-04-01T16:32:51;9.80;;;4.30;;
34471;SDS011;20710;49.976;19.836;2023-04-01T16:52:16;8.10;;;4.80;;
34471;SDS011;20710;49.976;19.836;2023-04-01T17:05:11;6.50;;;4.20;;
34471;SDS011;20710;49.976;19.836;2023-04-01T17:11:48;6.10;;;4.70;;
34471;SDS011;20710;49.976;19.836;2023-04-01T17:31:31;22.80;;;8.10;;
34471;SDS011;20710;49.976;19.836;2023-04-01T17:38:09;12.30;;;8.10;;
34471;SDS011;20710;49.976;19.836;2023-04-01T17:44:52;15.00;;;9.50;;
34471;SDS011;20710;49.976;19.836;2023-04-01T18:04:45;14.70;;;9.20;;
34471;SDS011;20710;49.976;19.836;2023-04-01T18:11:00;13.10;;;8.30;;
34471;SDS011;20710;49.976;19.836;2023-04-01T18:24:10;13.00;;;7.90;;
34471;SDS011;20710;49.976;19.836;2023-04-01T18:30:29;16.10;;;10.20;;
34471;SDS011;20710;49.976;19.836;2023-04-01T18:36:49;14.80;;;9.70;;
34471;SDS011;20710;49.976;19.836;2023-04-01T18:56:01;16.10;;;10.60;;
34471;SDS011;20710;49.976;19.836;2023-04-01T19:08:41;17.50;;;12.80;;
34471;SDS011;20710;49.976;19.836;2023-04-01T19:14:59;24.20;;;16.90;;
34471;SDS011;20710;49.976;19.836;2023-04-01T19:27:34;17.80;;;13.70;;
34471;SDS011;20710;49.976;19.836;2023-04-01T19:46:45;29.20;;;16.50;;
34471;SDS011;20710;49.976;19.836;2023-04-01T19:52:50;32.10;;;16.10;;
34471;SDS011;20710;49.976;19.836;2023-04-01T20:05:30;32.60;;;16.80;;
34471;SDS011;20710;49.976;19.836;2023-04-01T20:12:04;27.00;;;17.30;;
34471;SDS011;20710;49.976;19.836;2023-04-01T20:24:52;26.20;;;17.80;;
34471;SDS011;20710;49.976;19.836;2023-04-01T20:31:18;27.50;;;17.10;;
34471;SDS011;20710;49.976;19.836;2023-04-01T20:44:10;21.30;;;15.40;;
34471;SDS011;20710;49.976;19.836;2023-04-01T20:50:29;27.50;;;17.40;;
34471;SDS011;20710;49.976;19.836;2023-04-01T20:56:48;30.40;;;18.60;;
34471;SDS011;20710;49.976;19.836;2023-04-01T21:03:19;35.00;;;19.70;;
34471;SDS011;20710;49.976;19.836;2023-04-01T21:15:59;24.10;;;16.10;;
34471;SDS011;20710;49.976;19.836;2023-04-01T21:22:40;28.10;;;15.70;;
34471;SDS011;20710;49.976;19.836;2023-04-01T22:14:54;27.40;;;16.50;;
34471;SDS011;20710;49.976;19.836;2023-04-01T22:21:21;32.90;;;17.50;;
34471;SDS011;20710;49.976;19.836;2023-04-01T22:27:30;26.30;;;16.90;;
34471;SDS011;20710;49.976;19.836;2023-04-01T22:46:56;27.40;;;16.50;;
34471;SDS011;20710;49.976;19.836;2023-04-01T22:53:14;26.10;;;16.50;;
34471;SDS011;20710;49.976;19.836;2023-04-01T23:05:40;26.10;;;16.20;;
34471;SDS011;20710;49.976;19.836;2023-04-01T23:12:01;25.90;;;17.60;;
34471;SDS011;20710;49.976;19.836;2023-04-01T23:24:58;28.60;;;16.80;;
34471;SDS011;20710;49.976;19.836;2023-04-01T23:31:34;28.60;;;17.50;;
34471;SDS011;20710;49.976;19.836;2023-04-01T23:37:39;32.60;;;19.90;;
34471;SDS011;20710;49.976;19.836;2023-04-01T23:43:41;30.70;;;19.00;;
34471;SDS011;20710;49.976;19.836;2023-04-01T23:49:45;31.30;;;19.30;;
34471;SDS011;20710;49.976;19.836;2023-04-01T23:55:58;31.60;;;19.70;;
